Time;durP1;ratioP1;P1;durP2;ratioP2;P2;SDS_P1;SDS_P2;PMS_P1;PMS_P2;Temp;Humidity;BMP_temperature;BMP_pressure;BME280_temperature;BME280_humidity;BME280_pressure;Samples;Min_cycle;Max_cycle;Signal;HPM_P1;HPM_P2
2021/05/08 00:00:45;;;;;;;1.40;1.00;;;3.80;98.00;;;;;;5091280;28;20464;-71
2021/05/08 00:03:11;;;;;;;1.20;0.90;;;3.80;98.00;;;;;;5090103;28;20488;-71
2021/05/08 00:05:38;;;;;;;1.20;0.90;;;3.80;98.00;;;;;;5092576;28;20457;-70
2021/05/08 00:08:05;;;;;;;1.87;1.30;;;3.90;98.00;;;;;;5089763;28;20488;-70
2021/05/08 00:10:31;;;;;;;1.20;1.00;;;4.00;98.00;;;;;;5092443;28;20484;-71
2021/05/08 00:12:59;;;;;;;1.20;0.90;;;4.00;98.00;;;;;;5089772;28;20478;-70
2021/05/08 00:15:26;;;;;;;1.20;1.00;;;3.80;98.00;;;;;;5092130;28;20456;-71
2021/05/08 00:17:53;;;;;;;1.20;1.00;;;3.70;98.00;;;;;;5091485;28;20514;-71
2021/05/08 00:20:21;;;;;;;1.20;0.90;;;3.60;98.00;;;;;;5090119;28;20452;-71
2021/05/08 00:22:47;;;;;;;1.20;0.90;;;3.50;98.00;;;;;;5090793;28;20473;-72
2021/05/08 00:25:14;;;;;;;1.40;1.10;;;3.50;98.00;;;;;;5089604;28;20805;-70
2021/05/08 00:27:41;;;;;;;1.23;1.00;;;3.40;98.00;;;;;;5092111;28;20476;-72
2021/05/08 00:30:10;;;;;;;1.20;1.00;;;3.40;98.00;;;;;;5089518;28;20452;-71
2021/05/08 00:32:36;;;;;;;1.20;0.90;;;3.60;98.00;;;;;;5091558;28;20456;-70
2021/05/08 00:35:04;;;;;;;1.20;1.00;;;3.50;98.00;;;;;;5089267;28;20463;-70
2021/05/08 00:37:30;;;;;;;1.20;0.90;;;3.50;98.00;;;;;;5091160;28;20455;-70
2021/05/08 00:39:57;;;;;;;1.20;0.90;;;3.40;98.00;;;;;;5089086;28;20517;-70
2021/05/08 00:42:23;;;;;;;1.20;1.00;;;3.40;98.00;;;;;;5090348;28;20490;-70
2021/05/08 00:44:50;;;;;;;1.20;0.90;;;3.60;98.00;;;;;;5089314;28;20834;-70
2021/05/08 00:47:19;;;;;;;1.40;1.10;;;3.40;98.00;;;;;;5091463;28;20453;-71
2021/05/08 00:49:46;;;;;;;3.63;1.50;;;3.20;98.00;;;;;;5088839;28;20977;-70
2021/05/08 00:52:14;;;;;;;1.20;0.90;;;3.20;98.00;;;;;;5091448;28;20465;-70
2021/05/08 00:54:40;;;;;;;1.20;0.90;;;3.30;98.00;;;;;;5088626;28;20505;-70
2021/05/08 00:57:07;;;;;;;1.20;0.93;;;3.20;98.00;;;;;;5091360;28;21063;-70
2021/05/08 00:59:35;;;;;;;1.20;0.90;;;3.10;98.00;;;;;;5089072;28;20977;-70
2021/05/08 01:02:03;;;;;;;2.13;1.10;;;3.00;98.00;;;;;;5089942;28;20824;-69
2021/05/08 01:04:31;;;;;;;1.20;1.00;;;2.90;98.00;;;;;;5088677;28;20460;-71
2021/05/08 01:06:57;;;;;;;1.20;0.90;;;3.00;98.00;;;;;;5089859;28;20827;-71
2021/05/08 01:09:24;;;;;;;1.20;0.90;;;3.00;98.00;;;;;;5088583;28;20530;-71
2021/05/08 01:11:51;;;;;;;1.83;1.40;;;3.10;98.00;;;;;;5091079;28;20459;-70
2021/05/08 01:14:18;;;;;;;1.20;0.90;;;3.20;98.00;;;;;;5088730;28;20840;-70
2021/05/08 01:16:45;;;;;;;1.20;0.90;;;3.00;98.00;;;;;;5091161;28;20470;-71
2021/05/08 01:19:15;;;;;;;1.20;0.93;;;2.90;98.00;;;;;;5088238;28;20504;-70
2021/05/08 01:21:42;;;;;;;1.47;1.20;;;2.90;98.00;;;;;;5089775;28;20479;-70
2021/05/08 01:24:09;;;;;;;1.20;0.90;;;2.90;98.00;;;;;;5088356;28;20480;-70
2021/05/08 01:26:36;;;;;;;1.20;1.00;;;2.90;98.00;;;;;;5091162;28;20457;-70
2021/05/08 01:29:03;;;;;;;1.20;0.93;;;3.00;98.00;;;;;;5088332;28;20978;-70
2021/05/08 01:31:30;;;;;;;1.20;1.00;;;3.20;98.00;;;;;;5090911;28;20448;-70
2021/05/08 01:33:56;;;;;;;1.73;1.33;;;3.30;98.00;;;;;;5088360;28;20451;-70
2021/05/08 01:36:24;;;;;;;1.30;1.10;;;3.40;98.00;;;;;;5090889;28;20942;-70
2021/05/08 01:38:52;;;;;;;1.73;1.37;;;3.30;98.00;;;;;;5088267;28;20946;-70
2021/05/08 01:41:18;;;;;;;1.20;0.90;;;3.40;98.00;;;;;;5090855;28;20509;-70
2021/05/08 01:43:45;;;;;;;1.20;1.00;;;3.60;98.00;;;;;;5088037;28;20486;-70
2021/05/08 01:46:12;;;;;;;1.20;1.00;;;3.60;98.00;;;;;;5090843;28;20452;-70
2021/05/08 01:48:39;;;;;;;2.90;1.73;;;3.30;98.00;;;;;;5091372;28;20488;-70
2021/05/08 01:51:05;;;;;;;3.93;1.20;;;3.20;98.00;;;;;;5095047;28;21018;-70
2021/05/08 01:53:32;;;;;;;1.20;0.90;;;3.30;98.00;;;;;;5092587;28;20794;-70
2021/05/08 01:56:00;;;;;;;1.20;1.00;;;3.40;98.00;;;;;;5094945;28;20964;-70
2021/05/08 01:58:26;;;;;;;4.90;1.70;;;3.20;98.00;;;;;;5092237;28;21319;-70
2021/05/08 02:00:54;;;;;;;1.90;1.83;;;3.20;98.00;;;;;;5095110;28;20494;-70
2021/05/08 02:03:21;;;;;;;1.40;1.10;;;3.10;98.00;;;;;;5092243;28;20506;-71
2021/05/08 02:05:48;;;;;;;1.20;1.00;;;3.00;98.00;;;;;;5094916;28;20451;-71
2021/05/08 02:08:15;;;;;;;1.20;1.10;;;3.10;98.00;;;;;;5092458;28;20459;-70
2021/05/08 02:10:43;;;;;;;1.20;1.00;;;3.20;98.00;;;;;;5094550;28;20460;-71
2021/05/08 02:13:11;;;;;;;1.27;1.00;;;3.20;98.00;;;;;;5091905;28;20847;-71
2021/05/08 02:15:39;;;;;;;1.20;0.97;;;3.40;98.00;;;;;;5094375;28;20457;-71
2021/05/08 02:18:06;;;;;;;1.20;1.00;;;3.30;98.00;;;;;;5093638;28;20488;-70
2021/05/08 02:20:36;;;;;;;1.20;1.00;;;3.20;98.00;;;;;;5093273;28;20496;-69
2021/05/08 02:23:06;;;;;;;1.20;0.90;;;3.20;98.00;;;;;;5094350;28;21003;-69
2021/05/08 02:25:32;;;;;;;1.20;1.00;;;3.10;98.00;;;;;;5093231;28;20508;-68
2021/05/08 02:27:59;;;;;;;1.40;1.30;;;2.90;98.00;;;;;;5093104;28;20491;-67
2021/05/08 02:30:28;;;;;;;1.20;0.90;;;2.80;98.00;;;;;;5090008;28;20466;-68
2021/05/08 02:32:56;;;;;;;2.13;1.80;;;2.60;98.00;;;;;;5094202;28;20946;-69
2021/05/08 02:35:23;;;;;;;1.20;1.00;;;2.70;98.00;;;;;;5091497;28;20517;-70
2021/05/08 02:37:50;;;;;;;1.20;1.00;;;2.90;98.00;;;;;;5094115;28;20451;-67
2021/05/08 02:40:19;;;;;;;1.20;1.00;;;2.70;98.00;;;;;;5091375;28;20456;-70
2021/05/08 02:42:46;;;;;;;1.40;1.20;;;2.60;98.00;;;;;;5094002;28;20480;-69
2021/05/08 02:45:14;;;;;;;1.20;0.90;;;2.70;98.00;;;;;;5090151;28;20961;-68
2021/05/08 02:47:43;;;;;;;1.20;1.13;;;2.50;98.00;;;;;;5093960;28;20836;-65
2021/05/08 02:50:11;;;;;;;1.20;1.20;;;2.40;98.00;;;;;;5091202;28;20451;-65
2021/05/08 02:52:38;;;;;;;1.40;1.20;;;2.40;98.00;;;;;;5093669;28;20447;-69
2021/05/08 02:55:06;;;;;;;1.20;1.00;;;2.50;98.00;;;;;;5091107;28;20861;-65
2021/05/08 02:57:32;;;;;;;1.20;1.00;;;2.30;98.00;;;;;;5093663;28;20448;-67
2021/05/08 03:00:00;;;;;;;1.20;1.00;;;2.30;98.00;;;;;;5089814;28;20482;-66
2021/05/08 03:02:26;;;;;;;1.20;1.00;;;2.30;98.00;;;;;;5093506;28;20459;-67
2021/05/08 03:04:54;;;;;;;1.20;0.90;;;2.40;98.00;;;;;;5091117;28;20490;-68
2021/05/08 03:07:20;;;;;;;1.20;1.00;;;2.30;98.00;;;;;;5092248;28;20469;-68
2021/05/08 03:09:47;;;;;;;1.40;1.10;;;2.20;98.00;;;;;;5089783;28;20467;-67
2021/05/08 03:12:13;;;;;;;1.20;0.90;;;2.20;98.00;;;;;;5093362;28;20544;-67
2021/05/08 03:14:40;;;;;;;1.20;1.00;;;2.30;98.00;;;;;;5090665;28;20448;-65
2021/05/08 03:17:06;;;;;;;1.20;1.00;;;2.30;98.00;;;;;;5093178;28;20821;-65
2021/05/08 03:19:33;;;;;;;1.20;0.90;;;2.40;98.00;;;;;;5090904;28;20455;-66
2021/05/08 03:22:00;;;;;;;1.20;0.90;;;2.50;98.00;;;;;;5093385;28;20498;-65
2021/05/08 03:24:27;;;;;;;1.20;1.13;;;2.60;98.00;;;;;;5089517;28;20567;-67
2021/05/08 03:26:53;;;;;;;1.20;1.00;;;2.50;98.00;;;;;;5093073;28;20455;-67
2021/05/08 03:29:21;;;;;;;1.33;1.23;;;2.40;98.00;;;;;;5090655;28;20455;-66
2021/05/08 03:31:47;;;;;;;2.07;1.73;;;2.40;98.00;;;;;;5093332;28;20720;-66
2021/05/08 03:34:14;;;;;;;1.50;1.20;;;2.20;98.00;;;;;;5090518;28;20495;-66
2021/05/08 03:36:40;;;;;;;1.20;0.90;;;2.10;98.00;;;;;;5093213;28;20534;-68
2021/05/08 03:39:08;;;;;;;1.20;1.00;;;2.10;98.00;;;;;;5090816;28;20520;-67
2021/05/08 03:41:34;;;;;;;1.20;0.90;;;2.10;98.00;;;;;;5092861;28;20821;-65
2021/05/08 03:44:01;;;;;;;1.50;1.40;;;2.10;98.00;;;;;;5090284;28;20556;-65
2021/05/08 03:46:27;;;;;;;1.20;1.03;;;2.10;98.00;;;;;;5092768;28;20482;-66
2021/05/08 03:48:54;;;;;;;1.20;1.00;;;2.10;98.00;;;;;;5088575;28;20491;-67
2021/05/08 03:51:24;;;;;;;1.20;1.10;;;2.00;98.00;;;;;;5092670;28;20604;-65
2021/05/08 03:53:50;;;;;;;1.20;0.90;;;2.00;98.00;;;;;;5089936;28;20530;-66
2021/05/08 03:56:18;;;;;;;1.20;1.00;;;2.00;98.00;;;;;;5092458;28;20856;-65
2021/05/08 03:58:44;;;;;;;1.20;0.90;;;2.00;98.00;;;;;;5089858;28;20566;-66
2021/05/08 04:01:11;;;;;;;1.27;1.10;;;2.20;98.00;;;;;;5092365;28;20464;-67
2021/05/08 04:03:38;;;;;;;1.20;0.93;;;2.10;98.00;;;;;;5089815;28;20523;-65
2021/05/08 04:06:04;;;;;;;1.20;1.10;;;2.30;98.00;;;;;;5092434;28;21019;-65
2021/05/08 04:08:32;;;;;;;1.53;1.07;;;2.40;98.00;;;;;;5089970;28;20456;-68
2021/05/08 04:10:59;;;;;;;1.20;0.90;;;2.30;98.00;;;;;;5091917;28;20464;-66
2021/05/08 04:13:38;;;;;;;1.30;1.10;;;2.40;98.00;;;;;;5089771;28;20475;-66
2021/05/08 04:16:09;;;;;;;1.20;1.00;;;2.50;98.00;;;;;;5091436;28;20463;-65
2021/05/08 04:18:35;;;;;;;1.20;1.00;;;2.30;98.00;;;;;;5089417;28;20787;-66
2021/05/08 04:21:02;;;;;;;1.30;1.10;;;2.30;98.00;;;;;;5092083;28;20455;-68
2021/05/08 04:23:31;;;;;;;1.20;0.90;;;2.40;98.00;;;;;;5089278;28;20483;-66
2021/05/08 04:25:58;;;;;;;1.20;1.00;;;2.50;98.00;;;;;;5091898;28;20456;-67
2021/05/08 04:28:24;;;;;;;1.40;1.27;;;2.40;98.00;;;;;;5089427;28;20491;-68
2021/05/08 04:30:51;;;;;;;1.20;1.00;;;2.40;98.00;;;;;;5091962;28;20467;-67
2021/05/08 04:33:20;;;;;;;1.60;1.20;;;2.30;98.00;;;;;;5091296;28;20483;-68
2021/05/08 04:35:47;;;;;;;1.20;0.90;;;2.30;98.00;;;;;;5090680;28;20936;-68
2021/05/08 04:38:13;;;;;;;1.20;0.90;;;2.40;98.00;;;;;;5091566;28;20495;-67
2021/05/08 04:40:40;;;;;;;3.00;1.40;;;2.40;98.00;;;;;;5089267;28;20471;-67
2021/05/08 04:43:06;;;;;;;2.33;1.20;;;2.30;98.00;;;;;;5091626;28;20911;-67
2021/05/08 04:45:33;;;;;;;1.20;0.90;;;2.30;98.00;;;;;;5088714;28;20503;-66
2021/05/08 04:48:01;;;;;;;1.20;0.90;;;2.30;98.00;;;;;;5091609;28;20456;-68
2021/05/08 04:50:28;;;;;;;1.20;0.90;;;2.40;98.00;;;;;;5087984;28;21124;-68
2021/05/08 04:52:55;;;;;;;1.20;1.13;;;2.50;98.00;;;;;;5091378;28;20494;-68
2021/05/08 04:55:22;;;;;;;1.20;1.00;;;2.50;98.00;;;;;;5087756;28;20539;-68
2021/05/08 04:57:49;;;;;;;1.20;0.90;;;2.60;98.00;;;;;;5090179;28;20525;-67
2021/05/08 05:00:17;;;;;;;1.20;1.00;;;2.70;98.00;;;;;;5088871;28;20463;-69
2021/05/08 05:02:45;;;;;;;1.20;1.00;;;2.90;98.00;;;;;;5091241;28;20456;-67
2021/05/08 05:05:14;;;;;;;1.30;1.00;;;3.00;98.00;;;;;;5088857;28;20491;-67
2021/05/08 05:07:43;;;;;;;1.40;1.20;;;3.00;98.00;;;;;;5091179;28;20477;-68
2021/05/08 05:10:11;;;;;;;1.20;1.00;;;3.00;98.00;;;;;;5087720;28;20460;-69
2021/05/08 05:12:39;;;;;;;1.20;0.90;;;3.00;98.00;;;;;;5091445;28;20447;-70
2021/05/08 05:15:07;;;;;;;1.20;0.90;;;3.10;98.00;;;;;;5088948;28;20487;-69
2021/05/08 05:17:35;;;;;;;1.20;1.00;;;3.10;98.00;;;;;;5091335;28;20552;-68
2021/05/08 05:20:03;;;;;;;1.20;1.00;;;3.00;98.00;;;;;;5087583;28;20448;-68
2021/05/08 05:22:32;;;;;;;1.20;1.00;;;3.00;98.00;;;;;;5089339;28;20460;-68
2021/05/08 05:24:59;;;;;;;1.40;1.20;;;3.10;98.00;;;;;;5088420;28;20483;-69
2021/05/08 05:27:26;;;;;;;1.20;0.90;;;3.30;98.00;;;;;;5091072;28;21074;-68
2021/05/08 05:29:52;;;;;;;2.13;1.40;;;3.60;98.00;;;;;;5088235;28;20951;-67
2021/05/08 05:32:22;;;;;;;1.20;0.90;;;3.60;98.00;;;;;;5091563;28;20824;-68
2021/05/08 05:34:49;;;;;;;1.93;1.37;;;3.70;98.00;;;;;;5089306;28;20452;-69
2021/05/08 05:37:15;;;;;;;1.20;0.90;;;3.50;98.00;;;;;;5091558;28;20965;-68
2021/05/08 05:39:43;;;;;;;2.37;1.20;;;3.30;98.00;;;;;;5087144;28;20455;-68
2021/05/08 05:42:10;;;;;;;1.87;1.27;;;3.20;98.00;;;;;;5091001;28;20463;-69
2021/05/08 05:44:36;;;;;;;1.20;0.90;;;3.20;98.00;;;;;;5087686;28;20568;-69
2021/05/08 05:47:04;;;;;;;1.20;0.97;;;3.40;98.00;;;;;;5091049;28;20894;-68
2021/05/08 05:49:30;;;;;;;1.20;1.00;;;3.60;98.00;;;;;;5088323;28;20454;-68
2021/05/08 05:51:58;;;;;;;1.20;1.00;;;3.70;98.00;;;;;;5090799;28;20456;-70
2021/05/08 05:54:24;;;;;;;4.80;1.57;;;3.90;98.00;;;;;;5088135;28;20448;-69
2021/05/08 05:56:54;;;;;;;1.20;0.90;;;4.10;98.00;;;;;;5090856;28;20542;-69
2021/05/08 05:59:20;;;;;;;1.20;0.97;;;4.30;98.00;;;;;;5088138;28;20492;-69
2021/05/08 06:01:47;;;;;;;1.20;0.90;;;4.50;98.00;;;;;;5090757;28;20488;-66
2021/05/08 06:04:13;;;;;;;1.93;1.30;;;4.60;98.00;;;;;;5086852;28;20488;-67
2021/05/08 06:06:40;;;;;;;1.30;1.30;;;4.60;98.00;;;;;;5090596;28;20526;-68
2021/05/08 06:09:06;;;;;;;1.40;1.23;;;4.80;98.00;;;;;;5088121;28;20803;-69
2021/05/08 06:11:33;;;;;;;1.30;1.00;;;4.90;98.00;;;;;;5091240;28;20492;-68
2021/05/08 06:14:00;;;;;;;1.20;0.90;;;5.00;98.00;;;;;;5087943;28;20459;-67
2021/05/08 06:16:27;;;;;;;1.20;1.00;;;5.20;98.00;;;;;;5090521;28;20954;-68
2021/05/08 06:18:53;;;;;;;1.30;1.10;;;5.40;98.00;;;;;;5088126;28;20469;-66
2021/05/08 06:21:21;;;;;;;2.07;1.47;;;5.60;98.00;;;;;;5090537;28;20458;-68
2021/05/08 06:23:47;;;;;;;1.20;1.00;;;5.80;98.00;;;;;;5088048;28;20486;-68
2021/05/08 06:26:13;;;;;;;1.30;1.17;;;5.90;98.00;;;;;;5090471;28;20466;-69
2021/05/08 06:28:42;;;;;;;1.20;1.00;;;6.00;98.00;;;;;;5087881;28;20454;-68
2021/05/08 06:31:09;;;;;;;1.20;1.13;;;6.20;98.00;;;;;;5090454;28;20493;-68
2021/05/08 06:33:36;;;;;;;1.20;1.00;;;6.30;98.00;;;;;;5089190;28;20460;-68
2021/05/08 06:36:02;;;;;;;1.87;1.37;;;6.40;98.00;;;;;;5094112;28;20530;-68
2021/05/08 06:38:29;;;;;;;1.20;0.90;;;6.50;98.00;;;;;;5094219;28;20448;-69
2021/05/08 06:40:55;;;;;;;1.20;0.90;;;6.50;98.00;;;;;;5091946;28;20796;-69
2021/05/08 06:43:22;;;;;;;1.20;1.00;;;6.50;98.00;;;;;;5094143;28;20486;-67
2021/05/08 06:45:48;;;;;;;1.20;1.00;;;6.60;98.00;;;;;;5091290;28;20510;-68
2021/05/08 06:48:15;;;;;;;1.23;1.00;;;6.60;98.00;;;;;;5093769;28;20460;-68
2021/05/08 06:50:46;;;;;;;1.20;0.90;;;6.70;98.00;;;;;;5091369;28;20878;-67
2021/05/08 06:53:12;;;;;;;1.20;1.00;;;6.80;98.00;;;;;;5093960;28;20534;-68
2021/05/08 06:55:39;;;;;;;1.20;1.00;;;6.90;98.00;;;;;;5091154;28;20491;-68
2021/05/08 06:58:05;;;;;;;1.20;0.90;;;7.00;98.00;;;;;;5093797;28;20934;-68
2021/05/08 07:00:32;;;;;;;1.93;1.40;;;7.10;98.00;;;;;;5091058;28;20453;-69
2021/05/08 07:02:59;;;;;;;1.20;0.90;;;7.30;98.00;;;;;;5093341;28;20480;-68
2021/05/08 07:05:28;;;;;;;1.20;1.00;;;7.50;98.00;;;;;;5090927;28;20488;-67
2021/05/08 07:08:01;;;;;;;1.20;1.00;;;7.70;98.00;;;;;;5093392;28;20471;-68
2021/05/08 07:10:27;;;;;;;1.20;1.00;;;8.00;98.00;;;;;;5090873;28;20546;-68
2021/05/08 07:12:54;;;;;;;1.20;1.00;;;8.10;98.00;;;;;;5093352;28;20451;-67
2021/05/08 07:15:20;;;;;;;1.20;1.00;;;8.30;98.00;;;;;;5091109;28;20969;-67
2021/05/08 07:18:00;;;;;;;1.20;1.10;;;8.50;98.00;;;;;;5093100;28;20468;-67
2021/05/08 07:20:27;;;;;;;1.30;1.20;;;8.70;98.00;;;;;;5090574;28;20447;-65
2021/05/08 07:22:54;;;;;;;1.20;0.90;;;8.80;98.00;;;;;;5091313;28;21029;-68
2021/05/08 07:25:20;;;;;;;1.20;0.90;;;8.90;98.00;;;;;;5089600;28;20805;-67
2021/05/08 07:27:48;;;;;;;1.20;0.97;;;9.20;98.00;;;;;;5092629;28;20454;-67
2021/05/08 07:30:17;;;;;;;1.20;1.00;;;9.30;98.00;;;;;;5089668;28;20486;-67
2021/05/08 07:32:44;;;;;;;1.20;0.90;;;9.50;98.00;;;;;;5092156;28;20460;-67
2021/05/08 07:35:11;;;;;;;1.20;1.20;;;9.60;98.00;;;;;;5090055;28;20463;-67
2021/05/08 07:37:40;;;;;;;1.20;1.00;;;9.80;98.00;;;;;;5092358;28;20457;-68
2021/05/08 07:40:09;;;;;;;1.83;1.60;;;10.00;98.00;;;;;;5090015;28;20948;-68
2021/05/08 07:42:36;;;;;;;1.20;1.00;;;10.20;98.00;;;;;;5092458;28;20458;-69
2021/05/08 07:45:03;;;;;;;1.30;1.17;;;10.50;98.00;;;;;;5089005;28;20484;-67
2021/05/08 07:47:29;;;;;;;1.20;1.00;;;10.80;98.00;;;;;;5092262;28;20487;-68
2021/05/08 07:49:56;;;;;;;1.30;1.13;;;11.00;97.90;;;;;;5088608;28;20482;-70
2021/05/08 07:52:22;;;;;;;1.70;1.10;;;11.20;96.70;;;;;;5092142;28;20464;-68
2021/05/08 07:54:49;;;;;;;1.30;1.10;;;11.40;95.30;;;;;;5089631;28;20454;-67
2021/05/08 07:57:16;;;;;;;1.87;1.00;;;11.70;94.30;;;;;;5092309;28;20950;-68
2021/05/08 07:59:42;;;;;;;1.50;1.20;;;11.90;91.90;;;;;;5089371;28;20972;-68
2021/05/08 08:02:10;;;;;;;1.20;0.90;;;12.00;92.20;;;;;;5091735;28;20460;-70
2021/05/08 08:04:37;;;;;;;1.20;1.00;;;12.10;90.50;;;;;;5089148;28;20476;-68
2021/05/08 08:07:03;;;;;;;1.20;1.00;;;12.20;89.50;;;;;;5092370;28;20948;-67
2021/05/08 08:09:30;;;;;;;1.20;1.00;;;12.40;85.60;;;;;;5089630;28;20846;-68
2021/05/08 08:11:57;;;;;;;1.20;1.00;;;12.50;82.10;;;;;;5091731;28;20484;-68
2021/05/08 08:14:24;;;;;;;1.20;0.90;;;12.70;82.60;;;;;;5089804;28;20649;-70
2021/05/08 08:16:50;;;;;;;2.73;1.10;;;12.80;82.70;;;;;;5092006;28;20458;-68
2021/05/08 08:19:17;;;;;;;1.20;1.00;;;12.90;81.70;;;;;;5089955;28;20603;-69
2021/05/08 08:21:44;;;;;;;1.20;1.10;;;13.00;81.00;;;;;;5092271;28;20459;-68
2021/05/08 08:24:10;;;;;;;1.30;1.10;;;13.10;81.30;;;;;;5089124;28;20558;-68
2021/05/08 08:26:37;;;;;;;1.20;1.10;;;13.20;81.80;;;;;;5091966;28;20463;-68
2021/05/08 08:29:04;;;;;;;1.40;1.37;;;13.30;80.00;;;;;;5089379;28;20866;-68
2021/05/08 08:31:31;;;;;;;1.40;1.00;;;13.40;80.00;;;;;;5092021;28;20459;-68
2021/05/08 08:33:57;;;;;;;1.97;1.10;;;13.50;79.50;;;;;;5089209;28;20458;-69
2021/05/08 08:36:23;;;;;;;1.20;0.90;;;13.60;80.70;;;;;;5091848;28;20455;-68
2021/05/08 08:38:51;;;;;;;2.27;1.10;;;13.80;79.60;;;;;;5089211;28;20458;-68
2021/05/08 08:41:18;;;;;;;1.20;1.00;;;13.90;79.20;;;;;;5092009;28;20553;-68
2021/05/08 08:43:46;;;;;;;1.20;1.00;;;14.00;78.80;;;;;;5090676;28;20564;-71
2021/05/08 08:46:15;;;;;;;1.20;0.90;;;14.20;78.30;;;;;;5090317;28;20449;-68
2021/05/08 08:48:43;;;;;;;1.20;1.00;;;14.20;77.20;;;;;;5091651;28;20460;-68
2021/05/08 08:51:09;;;;;;;1.20;1.00;;;14.40;80.40;;;;;;5089627;28;20465;-69
2021/05/08 08:53:36;;;;;;;1.20;1.00;;;14.60;74.60;;;;;;5091562;28;20537;-69
2021/05/08 08:56:03;;;;;;;2.83;1.20;;;14.70;75.20;;;;;;5088703;28;20503;-68
2021/05/08 08:58:32;;;;;;;1.20;1.00;;;14.70;73.60;;;;;;5090810;28;20870;-68
2021/05/08 09:00:59;;;;;;;1.20;0.90;;;14.70;76.80;;;;;;5089022;28;20474;-68
2021/05/08 09:03:27;;;;;;;1.20;0.90;;;14.70;75.50;;;;;;5091428;28;20513;-68
2021/05/08 09:05:53;;;;;;;1.20;1.00;;;14.80;75.00;;;;;;5088704;28;20982;-69
2021/05/08 09:08:20;;;;;;;1.20;1.00;;;15.00;72.70;;;;;;5091397;28;20459;-68
2021/05/08 09:10:46;;;;;;;1.20;1.00;;;15.00;73.90;;;;;;5088631;28;20453;-70
2021/05/08 09:13:17;;;;;;;1.20;1.00;;;15.10;74.40;;;;;;5091321;28;20455;-69
2021/05/08 09:15:46;;;;;;;1.20;1.00;;;15.10;73.50;;;;;;5087386;28;20480;-68
2021/05/08 09:18:34;;;;;;;1.20;1.03;;;15.10;74.50;;;;;;5091215;28;20468;-68
2021/05/08 09:21:02;;;;;;;1.20;0.97;;;14.90;74.50;;;;;;5088269;28;20462;-68
2021/05/08 09:23:32;;;;;;;1.40;1.10;;;14.70;75.30;;;;;;5090974;28;20482;-70
2021/05/08 09:26:01;;;;;;;1.20;1.10;;;14.70;73.00;;;;;;5088632;28;20455;-69
2021/05/08 09:28:29;;;;;;;1.40;1.00;;;14.80;74.80;;;;;;5091329;28;20867;-68
2021/05/08 09:30:56;;;;;;;1.20;0.90;;;15.10;76.00;;;;;;5086635;28;21008;-69
2021/05/08 09:33:24;;;;;;;1.33;1.30;;;15.30;74.30;;;;;;5090865;28;20459;-69
2021/05/08 09:36:02;;;;;;;1.20;1.00;;;15.40;74.20;;;;;;5088241;28;20812;-69
2021/05/08 09:38:41;;;;;;;1.30;1.20;;;15.40;72.20;;;;;;5091748;28;20458;-69
2021/05/08 09:41:10;;;;;;;1.20;1.00;;;15.40;71.90;;;;;;5088516;28;20463;-68
2021/05/08 09:43:44;;;;;;;1.20;1.00;;;15.40;73.60;;;;;;5091387;28;20491;-70
2021/05/08 09:46:24;;;;;;;1.20;1.00;;;15.50;74.90;;;;;;5088610;28;20458;-70
2021/05/08 09:49:09;;;;;;;1.20;1.00;;;15.60;72.50;;;;;;5090915;28;20466;-71
2021/05/08 09:51:38;;;;;;;1.20;1.00;;;15.70;72.10;;;;;;5091542;28;20967;-70
2021/05/08 09:54:15;;;;;;;1.30;1.10;;;15.80;70.70;;;;;;5088726;28;20489;-70
2021/05/08 09:56:43;;;;;;;1.20;1.00;;;15.90;71.80;;;;;;5091773;28;20460;-70
2021/05/08 09:59:23;;;;;;;1.30;1.20;;;16.00;74.70;;;;;;5088277;28;20462;-69
2021/05/08 10:01:50;;;;;;;1.20;1.07;;;16.10;71.50;;;;;;5091375;28;20516;-69
2021/05/08 10:04:27;;;;;;;1.93;1.03;;;16.00;69.90;;;;;;5088769;28;20485;-69
2021/05/08 10:07:11;;;;;;;1.87;1.20;;;15.90;71.30;;;;;;5091471;28;20924;-70
2021/05/08 10:09:38;;;;;;;1.30;1.17;;;16.00;71.80;;;;;;5090079;28;20524;-70
2021/05/08 10:12:07;;;;;;;1.20;1.10;;;16.00;71.50;;;;;;5095405;28;20587;-70
2021/05/08 10:14:35;;;;;;;1.20;1.00;;;16.00;70.20;;;;;;5092639;28;20861;-70
2021/05/08 10:17:01;;;;;;;1.20;1.00;;;16.00;70.00;;;;;;5093766;28;20469;-69
2021/05/08 10:19:30;;;;;;;1.30;1.20;;;16.20;72.30;;;;;;5092042;28;20458;-70
2021/05/08 10:21:58;;;;;;;1.30;1.20;;;16.40;72.00;;;;;;5095038;28;20930;-70
2021/05/08 10:24:26;;;;;;;1.20;1.00;;;16.50;71.80;;;;;;5091933;28;20847;-68
2021/05/08 10:26:57;;;;;;;1.40;1.07;;;16.50;68.70;;;;;;5094699;28;20455;-69
2021/05/08 10:29:26;;;;;;;4.30;1.60;;;16.60;67.30;;;;;;5092369;28;20458;-70
2021/05/08 10:31:54;;;;;;;1.20;1.03;;;16.80;67.80;;;;;;5095283;28;20834;-69
2021/05/08 10:34:31;;;;;;;1.20;1.00;;;16.90;68.30;;;;;;5091801;28;20494;-69
2021/05/08 10:37:06;;;;;;;1.20;1.00;;;17.00;70.50;;;;;;5095046;28;20455;-69
2021/05/08 10:39:57;;;;;;;1.20;1.00;;;17.20;67.90;;;;;;5092293;28;20542;-70
2021/05/08 10:42:38;;;;;;;1.20;1.03;;;17.50;68.00;;;;;;5094860;28;20512;-70
2021/05/08 10:45:07;;;;;;;1.20;1.07;;;17.80;67.80;;;;;;5092085;28;20492;-70
2021/05/08 10:48:08;;;;;;;1.20;1.10;;;17.80;65.80;;;;;;5094783;28;20462;-69
2021/05/08 10:50:48;;;;;;;1.20;1.00;;;18.10;67.30;;;;;;5049051;28;20488;-70
2021/05/08 10:53:17;;;;;;;1.20;1.10;;;18.20;62.50;;;;;;5089367;28;20470;-69
2021/05/08 10:55:57;;;;;;;1.40;1.10;;;18.30;64.40;;;;;;5091758;28;20455;-70
2021/05/08 10:58:31;;;;;;;1.20;1.00;;;18.70;63.40;;;;;;5094544;28;20948;-69
2021/05/08 11:01:00;;;;;;;1.20;1.07;;;18.90;64.90;;;;;;5091649;28;20804;-70
2021/05/08 11:03:31;;;;;;;1.30;1.10;;;19.20;62.80;;;;;;5094327;28;20570;-70
2021/05/08 11:06:00;;;;;;;1.30;1.10;;;19.50;65.60;;;;;;5091586;28;20968;-68
2021/05/08 11:08:47;;;;;;;1.20;1.00;;;19.90;63.50;;;;;;5094327;28;20487;-69
2021/05/08 11:11:17;;;;;;;1.20;1.00;;;19.60;60.90;;;;;;5090866;28;20464;-70
2021/05/08 11:14:01;;;;;;;1.20;1.00;;;19.60;61.80;;;;;;5093548;28;20488;-70
2021/05/08 11:16:29;;;;;;;1.97;1.20;;;19.90;63.10;;;;;;5093586;28;20546;-70
2021/05/08 11:18:59;;;;;;;1.30;1.13;;;20.10;62.90;;;;;;5093876;28;20471;-70
2021/05/08 11:22:02;;;;;;;1.20;1.03;;;20.10;61.90;;;;;;5091542;28;20762;-70
2021/05/08 11:24:34;;;;;;;4.90;1.30;;;20.00;61.00;;;;;;5091461;28;20901;-70
2021/05/08 11:27:01;;;;;;;1.40;1.20;;;19.70;59.10;;;;;;5093943;28;20914;-70
2021/05/08 11:29:35;;;;;;;1.20;1.10;;;19.50;60.30;;;;;;5091001;28;20464;-70
2021/05/08 11:32:03;;;;;;;1.20;1.10;;;19.40;61.20;;;;;;5094101;28;20865;-70
2021/05/08 11:34:46;;;;;;;1.20;1.10;;;19.40;61.30;;;;;;5091181;28;20582;-69
2021/05/08 11:37:26;;;;;;;1.40;1.10;;;19.30;61.90;;;;;;5073575;28;20963;-70
2021/05/08 11:39:53;;;;;;;1.30;1.20;;;19.40;63.70;;;;;;5070426;28;20460;-70
2021/05/08 11:42:25;;;;;;;1.20;1.10;;;19.40;64.40;;;;;;5073332;28;20453;-70
2021/05/08 11:44:54;;;;;;;1.40;1.30;;;19.50;61.80;;;;;;5069876;28;20484;-70
2021/05/08 11:47:28;;;;;;;1.63;1.20;;;19.60;63.40;;;;;;5073231;28;20453;-70
2021/05/08 11:49:57;;;;;;;1.37;1.30;;;19.90;62.60;;;;;;5069521;28;20506;-70
2021/05/08 11:52:38;;;;;;;1.33;1.20;;;20.40;56.80;;;;;;5073024;28;20514;-69
2021/05/08 11:55:07;;;;;;;1.30;1.20;;;21.00;59.10;;;;;;5070368;28;20503;-71
2021/05/08 11:57:35;;;;;;;1.20;1.03;;;21.00;59.80;;;;;;5073063;28;20458;-72
2021/05/08 12:00:16;;;;;;;1.60;1.33;;;21.10;59.90;;;;;;5070637;28;20506;-71
2021/05/08 12:02:43;;;;;;;1.20;1.10;;;21.00;58.20;;;;;;5073079;28;20544;-70
2021/05/08 12:05:10;;;;;;;1.20;1.00;;;20.70;56.70;;;;;;5070024;28;20831;-69
2021/05/08 12:07:40;;;;;;;1.40;1.30;;;20.80;59.40;;;;;;5073209;28;20452;-71
2021/05/08 12:10:16;;;;;;;1.50;1.10;;;20.80;60.90;;;;;;5070314;28;20471;-73
2021/05/08 12:12:48;;;;;;;1.40;1.20;;;20.60;61.90;;;;;;5072933;28;20454;-72
2021/05/08 12:15:20;;;;;;;1.20;1.03;;;20.20;59.50;;;;;;5069658;28;20518;-71
2021/05/08 12:17:47;;;;;;;1.20;1.10;;;20.20;60.00;;;;;;5072346;28;20476;-69
2021/05/08 12:20:17;;;;;;;1.20;1.10;;;20.10;62.60;;;;;;5069868;28;20453;-71
2021/05/08 12:22:47;;;;;;;1.40;1.10;;;19.90;60.50;;;;;;5072449;28;20503;-71
2021/05/08 12:25:22;;;;;;;1.20;1.00;;;19.90;61.60;;;;;;5069370;28;20489;-70
2021/05/08 12:27:50;;;;;;;1.30;1.13;;;20.00;61.60;;;;;;5072298;28;20549;-71
2021/05/08 12:30:17;;;;;;;1.90;1.40;;;20.00;59.50;;;;;;5069365;28;20457;-73
2021/05/08 12:32:51;;;;;;;1.20;1.10;;;20.10;62.40;;;;;;5072177;28;20460;-68
2021/05/08 12:35:19;;;;;;;1.20;1.20;;;20.20;61.20;;;;;;5069098;28;20538;-69
2021/05/08 12:37:46;;;;;;;1.30;1.10;;;20.10;62.50;;;;;;5072131;28;20475;-69
2021/05/08 12:40:14;;;;;;;1.20;1.10;;;20.00;62.10;;;;;;5069383;28;20457;-70
2021/05/08 12:42:45;;;;;;;1.20;1.00;;;20.20;62.80;;;;;;5070777;28;20460;-70
2021/05/08 12:45:14;;;;;;;1.20;1.10;;;20.20;61.00;;;;;;5069088;28;20485;-70
2021/05/08 12:47:46;;;;;;;1.20;1.10;;;20.50;60.70;;;;;;5071238;28;20453;-70
2021/05/08 12:50:14;;;;;;;1.20;1.07;;;20.70;60.00;;;;;;5069476;28;20464;-70
2021/05/08 12:52:42;;;;;;;1.43;1.20;;;20.70;59.90;;;;;;5072197;28;20517;-70
2021/05/08 12:55:26;;;;;;;1.20;1.10;;;21.00;61.00;;;;;;5068352;28;20571;-70
2021/05/08 12:57:53;;;;;;;1.97;1.40;;;21.30;60.00;;;;;;5070807;28;20456;-71
2021/05/08 13:00:21;;;;;;;1.20;1.00;;;21.50;61.10;;;;;;5068750;28;20465;-71